Time;durP1;ratioP1;P1;durP2;ratioP2;P2;SDS_P1;SDS_P2;PMS_P1;PMS_P2;Temp;Humidity;BMP_temperature;BMP_pressure;BME280_temperature;BME280_humidity;BME280_pressure;Samples;Min_cycle;Max_cycle;Signal;HPM_P1;HPM_P2
2023/12/08 00:01:36;;;;;;;30.77;25.50;;;1.30;99.90;;;;;;5020953;28;20270;-40
2023/12/08 00:04:02;;;;;;;32.07;26.10;;;1.30;99.90;;;;;;5025192;28;20363;-39
2023/12/08 00:06:27;;;;;;;32.17;26.70;;;1.30;99.90;;;;;;5024245;28;21275;-39
2023/12/08 00:08:53;;;;;;;32.50;27.47;;;1.30;99.90;;;;;;5024192;28;20192;-39
2023/12/08 00:11:19;;;;;;;32.30;26.87;;;1.20;99.90;;;;;;5024022;28;20467;-39
2023/12/08 00:13:44;;;;;;;28.33;25.33;;;1.20;99.90;;;;;;5024567;28;20234;-39
2023/12/08 00:16:10;;;;;;;30.20;25.50;;;1.20;99.90;;;;;;5023424;28;20199;-39
2023/12/08 00:18:36;;;;;;;35.00;26.80;;;1.20;99.90;;;;;;5023614;28;20202;-39
2023/12/08 00:21:02;;;;;;;35.85;26.25;;;1.20;99.90;;;;;;5023848;28;20234;-39
2023/12/08 00:23:28;;;;;;;34.53;26.65;;;1.20;99.90;;;;;;5023614;28;20211;-39
2023/12/08 00:25:54;;;;;;;34.30;27.20;;;1.20;99.90;;;;;;5024321;28;20226;-39
2023/12/08 00:28:19;;;;;;;36.97;27.87;;;1.20;99.90;;;;;;5021568;28;20467;-39
2023/12/08 00:30:45;;;;;;;34.50;26.40;;;1.20;99.90;;;;;;5023948;28;20196;-39
2023/12/08 00:33:11;;;;;;;36.83;27.50;;;1.20;99.90;;;;;;5024337;28;20804;-40
2023/12/08 00:35:36;;;;;;;30.50;26.40;;;1.20;99.90;;;;;;5023802;28;20190;-39
2023/12/08 00:38:02;;;;;;;32.27;27.53;;;1.20;99.90;;;;;;5023923;28;20191;-39
2023/12/08 00:40:28;;;;;;;30.80;26.55;;;1.20;99.90;;;;;;5023613;28;20179;-39
2023/12/08 00:42:54;;;;;;;33.33;27.77;;;1.20;99.90;;;;;;5022697;28;20214;-40
2023/12/08 00:45:19;;;;;;;36.87;27.83;;;1.20;99.90;;;;;;5023775;28;20185;-39
2023/12/08 00:47:45;;;;;;;33.30;26.33;;;1.20;99.90;;;;;;5022937;28;20198;-39
2023/12/08 00:50:10;;;;;;;38.10;28.63;;;1.30;99.90;;;;;;5021737;28;20191;-39
2023/12/08 00:52:36;;;;;;;37.10;28.53;;;1.30;99.90;;;;;;5022898;28;20213;-39
2023/12/08 00:55:02;;;;;;;33.33;27.10;;;1.30;99.90;;;;;;5023287;28;20198;-41
2023/12/08 00:57:27;;;;;;;31.13;26.93;;;1.30;99.90;;;;;;5023418;28;20263;-40
2023/12/08 00:59:53;;;;;;;36.57;26.97;;;1.30;99.90;;;;;;5023412;28;20187;-40
2023/12/08 01:02:19;;;;;;;36.27;26.47;;;1.30;99.90;;;;;;5022985;28;20183;-39
2023/12/08 01:04:44;;;;;;;34.57;26.37;;;1.30;99.90;;;;;;5022113;28;20189;-40
2023/12/08 01:07:10;;;;;;;34.20;27.50;;;1.30;99.90;;;;;;5022166;28;20180;-39
2023/12/08 01:09:36;;;;;;;34.10;26.87;;;1.30;99.90;;;;;;5022647;28;20933;-39
2023/12/08 01:12:03;;;;;;;39.80;27.83;;;1.30;99.90;;;;;;5023547;28;20982;-41
2023/12/08 01:14:28;;;;;;;32.83;26.63;;;1.30;99.90;;;;;;5022560;28;20512;-40
2023/12/08 01:16:54;;;;;;;35.10;27.87;;;1.30;99.90;;;;;;5022436;28;20742;-40
2023/12/08 01:19:20;;;;;;;33.73;26.67;;;1.40;99.90;;;;;;5023261;28;20265;-40
2023/12/08 01:21:45;;;;;;;36.00;28.90;;;1.30;99.90;;;;;;5022232;28;20221;-40
2023/12/08 01:24:11;;;;;;;38.90;28.20;;;1.40;99.90;;;;;;5023031;28;20211;-39
2023/12/08 01:26:42;;;;;;;38.15;27.40;;;1.30;99.90;;;;;;5022650;28;20193;-39
2023/12/08 01:29:08;;;;;;;35.35;27.02;;;1.30;99.90;;;;;;5022295;28;20181;-39
2023/12/08 01:31:34;;;;;;;36.33;26.33;;;1.30;99.90;;;;;;5022532;28;20180;-39
2023/12/08 01:33:59;;;;;;;31.70;27.40;;;1.30;99.90;;;;;;5023954;28;20190;-39
2023/12/08 01:36:25;;;;;;;33.60;25.30;;;1.40;99.90;;;;;;5023265;28;20305;-39
2023/12/08 01:38:50;;;;;;;35.90;27.60;;;1.40;99.90;;;;;;5023102;28;20574;-39
2023/12/08 01:41:16;;;;;;;35.80;27.57;;;1.40;99.90;;;;;;5022626;28;20188;-39
2023/12/08 01:43:45;;;;;;;32.33;26.10;;;1.40;99.90;;;;;;5022675;28;20216;-39
2023/12/08 01:46:21;;;;;;;32.75;25.05;;;1.30;99.90;;;;;;5022046;28;20657;-39
2023/12/08 01:48:48;;;;;;;32.38;26.48;;;1.30;99.90;;;;;;5021957;28;21026;-40
2023/12/08 01:51:15;;;;;;;33.33;26.75;;;1.30;99.90;;;;;;5022660;28;20205;-39
2023/12/08 01:53:41;;;;;;;32.97;25.73;;;1.30;99.90;;;;;;5022746;28;20279;-39
2023/12/08 01:56:09;;;;;;;26.35;23.55;;;1.30;99.90;;;;;;5020945;28;20191;-39
2023/12/08 01:58:35;;;;;;;33.38;25.88;;;1.30;99.90;;;;;;5022612;28;20270;-39
2023/12/08 02:01:04;;;;;;;36.40;25.48;;;1.30;99.90;;;;;;5022158;28;20198;-39
2023/12/08 02:03:33;;;;;;;29.65;25.25;;;1.30;99.90;;;;;;5022241;28;20253;-54
2023/12/08 02:06:00;;;;;;;31.23;24.90;;;1.40;99.90;;;;;;5016960;28;20187;-55
2023/12/08 02:08:29;;;;;;;29.20;25.98;;;1.40;99.90;;;;;;5022381;28;20540;-55
2023/12/08 02:10:55;;;;;;;31.60;25.27;;;1.40;99.90;;;;;;5021872;28;20276;-52
2023/12/08 02:13:24;;;;;;;28.73;24.93;;;1.40;99.90;;;;;;5022392;28;20278;-55
2023/12/08 02:15:57;;;;;;;32.40;24.23;;;1.40;99.90;;;;;;5022105;28;20195;-55
2023/12/08 02:18:24;;;;;;;31.63;25.55;;;1.40;99.90;;;;;;5021922;28;20187;-56
2023/12/08 02:20:50;;;;;;;32.53;24.98;;;1.40;99.90;;;;;;5021170;28;20241;-54
2023/12/08 02:23:15;;;;;;;34.63;27.50;;;1.40;99.90;;;;;;5021883;28;20909;-56
2023/12/08 02:25:41;;;;;;;30.13;25.80;;;1.40;99.90;;;;;;5021082;28;20190;-56
2023/12/08 02:28:07;;;;;;;28.13;23.70;;;1.40;99.90;;;;;;5021619;28;20711;-55
2023/12/08 02:30:32;;;;;;;30.70;25.63;;;1.40;99.90;;;;;;5021980;28;20184;-54
2023/12/08 02:33:12;;;;;;;30.37;25.20;;;1.50;99.90;;;;;;5020356;28;20191;-53
2023/12/08 02:35:40;;;;;;;31.63;25.52;;;1.40;99.90;;;;;;5021600;28;20218;-50
2023/12/08 02:38:08;;;;;;;34.63;26.67;;;1.40;99.90;;;;;;5021410;28;20227;-53
2023/12/08 02:40:35;;;;;;;31.38;25.55;;;1.40;99.90;;;;;;5021863;28;20243;-52
2023/12/08 02:43:02;;;;;;;28.95;25.85;;;1.40;99.90;;;;;;5019483;28;20218;-51
2023/12/08 02:45:28;;;;;;;33.40;27.58;;;1.40;99.90;;;;;;5021556;28;20592;-53
2023/12/08 02:47:53;;;;;;;32.03;26.00;;;1.40;99.90;;;;;;5021708;28;20188;-55
2023/12/08 02:50:19;;;;;;;30.47;25.40;;;1.30;99.90;;;;;;5021342;28;20185;-53
2023/12/08 02:52:44;;;;;;;33.23;26.00;;;1.30;99.90;;;;;;5021645;28;20222;-53
2023/12/08 02:55:10;;;;;;;33.03;27.50;;;1.40;99.90;;;;;;5021494;28;20317;-52
2023/12/08 02:57:36;;;;;;;30.60;26.00;;;1.30;99.90;;;;;;5020873;28;20591;-56
2023/12/08 03:00:03;;;;;;;31.70;27.10;;;1.30;99.90;;;;;;5021690;28;20261;-51
2023/12/08 03:02:28;;;;;;;31.08;25.23;;;1.30;99.90;;;;;;5021455;28;20210;-48
2023/12/08 03:04:54;;;;;;;32.93;26.97;;;1.30;99.90;;;;;;5021195;28;20692;-51
2023/12/08 03:07:20;;;;;;;33.60;26.37;;;1.30;99.90;;;;;;5021142;28;20186;-40
2023/12/08 03:09:45;;;;;;;32.57;26.33;;;1.30;99.90;;;;;;5020446;28;20178;-40
2023/12/08 03:12:11;;;;;;;32.87;25.33;;;1.20;99.90;;;;;;5020622;28;20320;-41
2023/12/08 03:14:36;;;;;;;32.10;26.90;;;1.20;99.90;;;;;;5020776;28;20190;-40
2023/12/08 03:17:02;;;;;;;34.87;27.77;;;1.20;99.90;;;;;;5020706;28;20187;-40
2023/12/08 03:19:28;;;;;;;30.33;25.37;;;1.20;99.90;;;;;;5020685;28;20214;-41
2023/12/08 03:21:53;;;;;;;32.70;26.13;;;1.20;99.90;;;;;;5020415;28;20191;-39
2023/12/08 03:24:19;;;;;;;32.27;25.33;;;1.20;99.90;;;;;;5019695;28;20707;-56
2023/12/08 03:26:46;;;;;;;28.97;24.77;;;1.20;99.90;;;;;;5019198;28;20186;-56
2023/12/08 03:29:15;;;;;;;31.48;24.90;;;1.20;99.90;;;;;;5021382;28;20308;-55
2023/12/08 03:31:41;;;;;;;31.20;25.42;;;1.20;99.90;;;;;;5020706;28;20182;-55
2023/12/08 03:34:07;;;;;;;27.75;24.83;;;1.20;99.90;;;;;;5020250;28;20182;-55
2023/12/08 03:36:33;;;;;;;29.00;25.15;;;1.10;99.90;;;;;;5019971;28;20245;-52
2023/12/08 03:38:58;;;;;;;32.47;25.07;;;1.10;99.90;;;;;;5020987;28;20196;-55
2023/12/08 03:41:24;;;;;;;32.60;25.80;;;1.20;99.90;;;;;;5020621;28;20177;-53
2023/12/08 03:43:50;;;;;;;28.90;24.80;;;1.20;98.10;;;;;;5019366;28;20217;-55
2023/12/08 03:46:16;;;;;;;30.38;25.13;;;1.20;91.90;;;;;;5020650;28;20244;-54
2023/12/08 03:48:41;;;;;;;25.70;22.87;;;1.20;79.10;;;;;;5020287;28;20546;-56
2023/12/08 03:51:07;;;;;;;27.80;24.70;;;1.20;70.10;;;;;;5020329;28;20275;-55
2023/12/08 03:53:33;;;;;;;25.80;23.10;;;1.20;72.90;;;;;;5020745;28;20190;-38
2023/12/08 03:55:59;;;;;;;27.63;24.60;;;1.20;58.70;;;;;;5020968;28;20907;-39
2023/12/08 03:58:26;;;;;;;24.97;22.40;;;1.20;55.80;;;;;;5020582;28;20222;-38
2023/12/08 04:00:51;;;;;;;25.80;23.27;;;1.20;57.60;;;;;;5020512;28;20218;-38
2023/12/08 04:03:17;;;;;;;28.60;23.97;;;1.10;52.90;;;;;;5020397;28;20202;-40
2023/12/08 04:05:42;;;;;;;27.97;23.40;;;1.10;52.40;;;;;;5020361;28;20191;-40
2023/12/08 04:08:08;;;;;;;22.97;20.63;;;1.10;54.80;;;;;;5020367;28;20266;-55
2023/12/08 04:10:34;;;;;;;26.87;23.93;;;1.10;56.40;;;;;;5019795;28;20612;-57
2023/12/08 04:12:59;;;;;;;25.90;23.27;;;1.20;51.50;;;;;;5018297;28;20437;-53
2023/12/08 04:15:25;;;;;;;25.07;21.83;;;1.10;53.10;;;;;;5020563;28;20289;-54
2023/12/08 04:17:51;;;;;;;26.70;23.27;;;1.10;51.70;;;;;;5019817;28;20191;-39
2023/12/08 04:20:18;;;;;;;25.67;23.10;;;1.10;52.10;;;;;;5020054;28;20284;-40
2023/12/08 04:22:44;;;;;;;27.33;23.20;;;1.10;55.90;;;;;;5019855;28;20239;-39
2023/12/08 04:25:11;;;;;;;24.57;21.97;;;1.10;52.20;;;;;;5020064;28;20277;-39
2023/12/08 04:27:36;;;;;;;23.17;20.88;;;1.10;45.70;;;;;;5020328;28;20290;-39
2023/12/08 04:30:02;;;;;;;24.93;22.27;;;1.10;39.90;;;;;;5020549;28;21174;-39
2023/12/08 04:32:28;;;;;;;23.57;20.70;;;1.10;33.80;;;;;;5020574;28;20175;-54
2023/12/08 04:34:53;;;;;;;23.33;21.13;;;1.10;30.20;;;;;;5020061;28;20183;-50
2023/12/08 04:37:19;;;;;;;25.03;22.43;;;1.10;31.60;;;;;;5019829;28;20285;-54
2023/12/08 04:39:44;;;;;;;23.57;20.87;;;1.10;31.40;;;;;;5020254;28;20187;-52
2023/12/08 04:42:10;;;;;;;23.10;20.67;;;1.10;24.70;;;;;;5019286;28;21101;-52
2023/12/08 04:44:35;;;;;;;22.40;20.00;;;1.00;17.80;;;;;;5020129;28;20261;-55
2023/12/08 04:47:01;;;;;;;23.27;20.90;;;1.10;23.70;;;;;;5020307;28;20183;-55
2023/12/08 04:49:27;;;;;;;22.03;19.90;;;1.10;18.20;;;;;;5023860;28;20585;-55
2023/12/08 04:51:52;;;;;;;22.20;19.90;;;1.10;21.40;;;;;;5023571;28;20190;-49
2023/12/08 04:54:18;;;;;;;22.13;19.93;;;1.10;17.70;;;;;;5023468;28;20548;-56
2023/12/08 04:56:44;;;;;;;22.30;20.00;;;1.10;17.10;;;;;;5023777;28;20449;-54
2023/12/08 04:59:09;;;;;;;22.93;20.57;;;1.10;18.50;;;;;;5023230;28;20646;-56
2023/12/08 05:01:35;;;;;;;21.63;19.33;;;1.10;11.80;;;;;;5023841;28;20190;-56
2023/12/08 05:04:02;;;;;;;22.67;20.47;;;1.10;1.00;;;;;;5021940;28;20741;-56
2023/12/08 05:06:28;;;;;;;21.42;18.30;;;1.10;1.00;;;;;;5022736;28;20187;-54
2023/12/08 05:08:54;;;;;;;22.17;20.13;;;1.10;1.00;;;;;;5023555;28;20201;-55
2023/12/08 05:11:20;;;;;;;21.37;19.27;;;1.10;1.00;;;;;;5022829;28;20424;-56
2023/12/08 05:13:45;;;;;;;23.00;20.73;;;1.10;1.00;;;;;;5023707;28;20253;-52
2023/12/08 05:16:11;;;;;;;19.80;18.10;;;1.10;1.00;;;;;;5023011;28;20830;-56
2023/12/08 05:18:37;;;;;;;19.07;17.30;;;1.00;1.00;;;;;;5023517;28;20594;-54
2023/12/08 05:21:03;;;;;;;19.87;18.17;;;1.00;1.00;;;;;;5022751;28;20538;-54
2023/12/08 05:23:29;;;;;;;20.40;18.33;;;1.10;1.00;;;;;;5022882;28;20225;-54
2023/12/08 05:25:54;;;;;;;19.70;17.90;;;1.10;1.00;;;;;;5023242;28;20421;-56
2023/12/08 05:28:20;;;;;;;19.80;18.00;;;1.10;1.00;;;;;;5022701;28;21437;-57
2023/12/08 05:30:46;;;;;;;19.67;17.80;;;1.20;1.00;;;;;;5022958;28;20413;-56
2023/12/08 05:33:11;;;;;;;20.30;18.30;;;1.20;1.00;;;;;;5023483;28;20191;-55
2023/12/08 05:35:37;;;;;;;19.90;17.60;;;1.20;1.00;;;;;;5022735;28;20195;-54
2023/12/08 05:38:03;;;;;;;18.80;17.00;;;1.10;1.00;;;;;;5023060;28;20534;-56
2023/12/08 05:40:28;;;;;;;18.37;16.73;;;1.10;1.00;;;;;;5023351;28;20193;-40
2023/12/08 05:42:54;;;;;;;19.77;18.07;;;1.10;1.00;;;;;;5021905;28;20211;-39
2023/12/08 05:45:19;;;;;;;19.13;17.43;;;1.00;1.00;;;;;;5022676;28;20187;-39
2023/12/08 05:47:45;;;;;;;18.53;16.83;;;1.00;1.00;;;;;;5022696;28;20178;-38
2023/12/08 05:50:11;;;;;;;19.00;17.30;;;1.00;1.00;;;;;;5023078;28;20183;-39
2023/12/08 05:52:36;;;;;;;18.97;16.20;;;1.00;1.00;;;;;;5022520;28;20650;-39
2023/12/08 05:55:02;;;;;;;19.70;17.73;;;0.90;1.00;;;;;;5022449;28;20187;-39
2023/12/08 05:57:28;;;;;;;19.03;17.33;;;1.00;1.00;;;;;;5022271;28;20532;-38
2023/12/08 05:59:54;;;;;;;18.97;17.17;;;0.90;1.00;;;;;;5021455;28;21434;-39
2023/12/08 06:02:19;;;;;;;18.10;16.50;;;1.00;1.00;;;;;;5019023;28;20194;-39
2023/12/08 06:04:45;;;;;;;18.43;16.63;;;0.90;1.00;;;;;;5015991;28;20277;-39
2023/12/08 06:07:11;;;;;;;18.07;16.27;;;0.90;1.00;;;;;;5022452;28;20460;-39
2023/12/08 06:09:36;;;;;;;17.43;15.80;;;0.90;1.00;;;;;;5021887;28;20282;-39
2023/12/08 06:12:02;;;;;;;17.43;15.83;;;0.90;1.00;;;;;;5021859;28;21025;-39
2023/12/08 06:14:28;;;;;;;17.08;15.60;;;0.90;1.00;;;;;;5019805;28;20188;-52
2023/12/08 06:16:53;;;;;;;17.70;16.10;;;0.90;1.00;;;;;;5021832;28;20265;-53
2023/12/08 06:19:19;;;;;;;18.10;16.47;;;0.90;1.00;;;;;;5021675;28;20309;-55
2023/12/08 06:21:45;;;;;;;17.60;16.00;;;0.90;1.00;;;;;;5021832;28;20187;-54
2023/12/08 06:24:10;;;;;;;18.17;16.47;;;0.90;1.00;;;;;;5022042;28;20966;-53
2023/12/08 06:26:39;;;;;;;18.33;16.63;;;0.90;1.00;;;;;;5022254;28;20177;-54
2023/12/08 06:29:04;;;;;;;18.80;17.10;;;0.90;1.00;;;;;;5021748;28;20279;-51
2023/12/08 06:31:31;;;;;;;19.33;17.43;;;1.00;1.00;;;;;;5022159;28;20193;-57
2023/12/08 06:33:56;;;;;;;19.73;17.90;;;1.00;1.00;;;;;;5020879;28;20252;-57
2023/12/08 06:36:22;;;;;;;19.10;17.40;;;0.90;1.00;;;;;;5020691;28;20188;-56
2023/12/08 06:38:48;;;;;;;19.27;17.47;;;0.90;1.00;;;;;;5021650;28;20179;-55
2023/12/08 06:41:13;;;;;;;19.10;17.40;;;0.90;1.00;;;;;;5020258;28;20206;-52
2023/12/08 06:43:39;;;;;;;19.03;17.30;;;0.90;1.00;;;;;;5020871;28;20221;-55
2023/12/08 06:46:05;;;;;;;18.00;16.33;;;0.90;1.00;;;;;;5021428;28;20186;-53
2023/12/08 06:48:30;;;;;;;20.07;18.17;;;0.90;1.00;;;;;;5019049;28;20185;-56
2023/12/08 06:50:56;;;;;;;19.20;17.30;;;0.90;1.00;;;;;;5020975;28;20548;-54
2023/12/08 06:53:21;;;;;;;17.73;16.27;;;0.90;1.00;;;;;;5020537;28;20240;-54
2023/12/08 06:55:47;;;;;;;18.30;16.47;;;0.90;1.00;;;;;;5019466;28;20722;-54
2023/12/08 06:58:13;;;;;;;18.97;17.00;;;0.90;1.00;;;;;;5020845;28;20207;-56
2023/12/08 07:00:38;;;;;;;18.57;16.87;;;0.90;1.00;;;;;;5020743;28;20549;-53
2023/12/08 07:03:05;;;;;;;17.90;16.33;;;0.90;1.00;;;;;;5020404;28;20217;-55
2023/12/08 07:05:31;;;;;;;19.17;17.38;;;0.90;1.00;;;;;;5020625;28;20189;-54
2023/12/08 07:07:57;;;;;;;17.00;15.50;;;0.90;1.00;;;;;;5020685;28;20182;-57
2023/12/08 07:10:23;;;;;;;19.55;17.85;;;0.90;1.00;;;;;;5019912;28;20265;-54
2023/12/08 07:12:48;;;;;;;18.00;16.30;;;0.90;1.00;;;;;;5019710;28;20769;-56
2023/12/08 07:15:14;;;;;;;18.47;16.87;;;1.00;1.00;;;;;;5020443;28;20306;-52
2023/12/08 07:17:40;;;;;;;16.67;15.30;;;0.90;1.00;;;;;;5019962;28;20223;-56
2023/12/08 07:20:09;;;;;;;18.40;16.80;;;0.90;1.00;;;;;;5020306;28;20234;-56
2023/12/08 07:22:35;;;;;;;18.85;17.05;;;0.90;1.00;;;;;;5020244;28;20186;-39
2023/12/08 07:25:04;;;;;;;17.95;16.35;;;0.90;1.00;;;;;;5020993;28;20265;-39
2023/12/08 07:27:30;;;;;;;17.98;16.30;;;0.90;1.00;;;;;;5019441;28;20171;-39
2023/12/08 07:29:56;;;;;;;18.67;16.98;;;0.90;1.00;;;;;;5020393;28;20253;-38
2023/12/08 07:32:21;;;;;;;18.10;16.40;;;0.90;1.00;;;;;;5019080;28;20868;-40
2023/12/08 07:34:47;;;;;;;20.50;17.77;;;0.90;1.00;;;;;;5019963;28;20185;-41
2023/12/08 07:37:12;;;;;;;18.53;16.83;;;0.90;1.00;;;;;;5020237;28;20237;-40
2023/12/08 07:39:38;;;;;;;19.47;17.47;;;0.90;1.00;;;;;;5020485;28;20189;-39
2023/12/08 07:42:04;;;;;;;20.27;18.33;;;1.00;1.00;;;;;;5018693;28;20676;-38
2023/12/08 07:44:29;;;;;;;19.10;17.30;;;1.00;1.00;;;;;;5019397;28;20269;-40
2023/12/08 07:46:55;;;;;;;18.37;16.83;;;1.00;1.00;;;;;;5020001;28;20218;-40
2023/12/08 07:49:20;;;;;;;19.97;18.00;;;1.00;1.00;;;;;;5020178;28;20179;-39
2023/12/08 07:51:46;;;;;;;19.40;17.60;;;1.00;1.00;;;;;;5019884;28;20986;-40
2023/12/08 07:54:12;;;;;;;19.57;17.67;;;1.00;1.00;;;;;;5019563;28;20270;-38
2023/12/08 07:56:38;;;;;;;18.63;16.92;;;1.10;1.00;;;;;;5016691;28;20196;-38
2023/12/08 07:59:03;;;;;;;19.30;17.33;;;1.10;1.00;;;;;;5018736;28;20181;-38
2023/12/08 08:01:31;;;;;;;19.40;17.60;;;1.20;1.00;;;;;;5017266;28;20213;-40
2023/12/08 08:03:57;;;;;;;20.15;18.17;;;1.20;1.00;;;;;;5018431;28;20486;-38
2023/12/08 08:06:22;;;;;;;19.13;17.27;;;1.30;1.00;;;;;;5019274;28;20183;-52
2023/12/08 08:08:49;;;;;;;19.90;17.90;;;1.50;1.00;;;;;;5018077;28;20191;-52
2023/12/08 08:11:14;;;;;;;19.50;17.55;;;1.50;1.00;;;;;;5018699;28;20241;-51
2023/12/08 08:13:40;;;;;;;20.93;18.10;;;1.60;1.00;;;;;;5018564;28;20737;-51
2023/12/08 08:16:06;;;;;;;20.00;18.00;;;1.80;1.00;;;;;;5017812;28;21244;-54
2023/12/08 08:18:32;;;;;;;18.83;17.02;;;1.90;1.00;;;;;;5018347;28;20283;-51
2023/12/08 08:20:57;;;;;;;19.27;17.50;;;2.10;1.00;;;;;;5016437;28;20244;-50
2023/12/08 08:23:23;;;;;;;20.77;18.67;;;2.10;1.00;;;;;;5019143;28;20198;-56
2023/12/08 08:25:48;;;;;;;19.57;17.67;;;2.20;1.00;;;;;;5020877;28;20972;-51
2023/12/08 08:28:14;;;;;;;19.93;17.80;;;2.20;1.00;;;;;;5022011;28;20187;-50
2023/12/08 08:30:42;;;;;;;17.37;15.83;;;2.20;1.00;;;;;;5016454;28;20191;-54
2023/12/08 08:33:08;;;;;;;18.70;16.85;;;2.20;1.00;;;;;;5019014;28;20192;-54
2023/12/08 08:35:34;;;;;;;18.83;17.03;;;2.20;1.00;;;;;;5022169;28;20716;-39
2023/12/08 08:37:59;;;;;;;18.60;16.93;;;2.30;1.00;;;;;;5023056;28;20249;-39
2023/12/08 08:40:25;;;;;;;18.80;17.10;;;2.30;1.00;;;;;;5020335;28;20243;-39
2023/12/08 08:42:51;;;;;;;16.80;15.10;;;2.40;1.00;;;;;;5023610;28;20562;-39
2023/12/08 08:45:19;;;;;;;20.03;18.00;;;2.40;1.00;;;;;;5018987;28;20201;-40
2023/12/08 08:47:45;;;;;;;18.50;16.83;;;2.30;1.00;;;;;;5022499;28;20437;-39
2023/12/08 08:50:10;;;;;;;19.65;17.70;;;2.20;1.00;;;;;;5022816;28;20187;-39
2023/12/08 08:52:36;;;;;;;19.00;17.10;;;2.20;1.00;;;;;;5022591;28;20203;-55
2023/12/08 08:55:04;;;;;;;19.65;17.95;;;2.10;1.00;;;;;;5021208;28;20271;-52
2023/12/08 08:57:30;;;;;;;17.90;16.20;;;2.20;1.00;;;;;;5022314;28;20188;-39
2023/12/08 08:59:56;;;;;;;18.52;16.80;;;2.20;1.00;;;;;;5022075;28;20268;-39
2023/12/08 09:02:21;;;;;;;17.77;16.20;;;2.20;1.00;;;;;;5022484;28;20550;-39
2023/12/08 09:04:47;;;;;;;18.93;17.30;;;2.20;1.00;;;;;;5022574;28;21139;-38
2023/12/08 09:07:13;;;;;;;18.77;16.93;;;2.20;1.00;;;;;;5022553;28;20197;-40
2023/12/08 09:09:38;;;;;;;17.50;15.90;;;2.20;1.00;;;;;;5022327;28;21144;-40
2023/12/08 09:12:04;;;;;;;19.10;17.20;;;2.30;1.00;;;;;;5022362;28;20253;-39
2023/12/08 09:14:31;;;;;;;18.42;16.83;;;2.30;1.00;;;;;;5022306;28;20274;-39
2023/12/08 09:16:56;;;;;;;18.20;16.60;;;2.30;1.00;;;;;;5020564;28;21351;-39
2023/12/08 09:19:22;;;;;;;17.87;16.23;;;2.30;1.00;;;;;;5021904;28;20230;-39
2023/12/08 09:21:48;;;;;;;17.03;15.60;;;2.40;1.00;;;;;;5023529;28;20218;-39
2023/12/08 09:24:13;;;;;;;17.37;15.87;;;2.40;1.00;;;;;;5017839;28;20307;-39
2023/12/08 09:26:39;;;;;;;18.57;16.77;;;2.30;1.00;;;;;;5022747;28;20184;-39
2023/12/08 09:29:05;;;;;;;17.83;16.37;;;2.40;1.00;;;;;;5022035;28;20727;-39
2023/12/08 09:31:30;;;;;;;17.17;15.67;;;2.30;1.00;;;;;;5019375;28;20706;-39
2023/12/08 09:33:58;;;;;;;18.17;16.40;;;2.30;1.00;;;;;;5020895;28;20908;-39
2023/12/08 09:36:24;;;;;;;18.75;17.15;;;2.40;1.00;;;;;;5020430;28;20197;-40
2023/12/08 09:38:49;;;;;;;19.57;17.87;;;2.40;1.00;;;;;;5020762;28;20206;-39
2023/12/08 09:41:15;;;;;;;18.17;16.63;;;2.40;1.00;;;;;;5019924;28;20872;-40
2023/12/08 09:43:53;;;;;;;19.23;17.43;;;2.40;1.00;;;;;;5021667;28;20324;-39
2023/12/08 09:46:18;;;;;;;17.35;15.90;;;2.40;1.00;;;;;;5017061;28;20430;-39
2023/12/08 09:48:47;;;;;;;17.37;16.07;;;2.50;1.00;;;;;;5020204;28;20198;-39
2023/12/08 09:51:15;;;;;;;18.90;16.92;;;2.60;1.00;;;;;;5020271;28;20192;-39
2023/12/08 09:53:41;;;;;;;17.77;16.17;;;2.60;1.00;;;;;;5020414;28;20665;-39
2023/12/08 09:56:08;;;;;;;17.92;16.33;;;2.60;1.00;;;;;;5019877;28;20296;-39
2023/12/08 09:58:35;;;;;;;17.80;16.23;;;2.70;1.00;;;;;;5015409;28;20199;-39
2023/12/08 10:01:01;;;;;;;18.13;16.67;;;2.80;1.00;;;;;;5020351;28;20196;-39
2023/12/08 10:03:27;;;;;;;19.75;18.05;;;2.70;1.00;;;;;;5018765;28;20571;-39
2023/12/08 10:05:55;;;;;;;19.13;17.43;;;2.70;1.00;;;;;;5021749;28;20189;-39
2023/12/08 10:08:21;;;;;;;17.23;15.82;;;2.80;1.00;;;;;;5021186;28;20435;-40
2023/12/08 10:10:47;;;;;;;19.00;17.40;;;2.80;1.00;;;;;;5021616;28;20188;-39
2023/12/08 10:13:13;;;;;;;17.47;15.93;;;2.90;1.00;;;;;;5022431;28;20666;-39
2023/12/08 10:15:43;;;;;;;18.00;16.40;;;2.80;1.00;;;;;;5021052;28;20197;-39
2023/12/08 10:18:24;;;;;;;17.67;16.08;;;2.90;1.00;;;;;;5021182;28;20443;-39
2023/12/08 10:20:50;;;;;;;17.98;16.27;;;2.90;1.00;;;;;;5021095;28;20750;-39
2023/12/08 10:23:22;;;;;;;19.90;18.13;;;2.80;1.00;;;;;;5019526;28;20234;-39
2023/12/08 10:25:49;;;;;;;18.10;16.45;;;2.80;1.00;;;;;;5020913;28;20198;-39
2023/12/08 10:28:15;;;;;;;20.13;18.13;;;2.80;1.00;;;;;;5020665;28;20238;-38
2023/12/08 10:30:50;;;;;;;18.50;16.80;;;2.90;1.00;;;;;;5020880;28;20189;-38
2023/12/08 10:33:23;;;;;;;18.83;17.15;;;2.90;1.00;;;;;;5020181;28;20195;-38
2023/12/08 10:35:51;;;;;;;18.55;17.00;;;3.00;1.00;;;;;;5020867;28;20221;-38
2023/12/08 10:38:17;;;;;;;18.70;17.10;;;2.90;1.00;;;;;;5020895;28;20203;-39
2023/12/08 10:40:47;;;;;;;19.00;17.20;;;2.90;1.00;;;;;;5020676;28;20310;-54
2023/12/08 10:43:22;;;;;;;19.25;17.60;;;2.90;1.00;;;;;;5020403;28;20213;-54
2023/12/08 10:45:50;;;;;;;20.15;18.35;;;3.10;1.00;;;;;;5020529;28;20211;-53
2023/12/08 10:48:16;;;;;;;17.77;16.17;;;3.10;1.00;;;;;;5020868;28;20212;-54
2023/12/08 10:50:43;;;;;;;17.50;16.00;;;3.20;1.00;;;;;;5018508;28;20240;-54
2023/12/08 10:53:09;;;;;;;19.55;17.85;;;3.20;99.90;;;;;;5019685;28;20185;-55
2023/12/08 10:55:35;;;;;;;18.95;17.15;;;3.20;99.90;;;;;;5020589;28;20246;-52
2023/12/08 10:58:05;;;;;;;19.43;17.80;;;3.20;1.00;;;;;;5019221;28;20747;-52
2023/12/08 11:00:32;;;;;;;19.10;17.25;;;3.20;1.00;;;;;;5020099;28;20537;-50
2023/12/08 11:02:58;;;;;;;18.50;16.80;;;3.20;99.90;;;;;;5019370;28;20245;-51
2023/12/08 11:05:37;;;;;;;20.10;18.05;;;3.10;1.00;;;;;;5016697;28;20201;-53
2023/12/08 11:08:06;;;;;;;18.90;17.10;;;3.20;99.90;;;;;;5019318;28;20211;-55
2023/12/08 11:10:36;;;;;;;19.83;18.02;;;3.30;99.90;;;;;;5016377;28;20265;-52
2023/12/08 11:13:08;;;;;;;18.98;17.27;;;3.10;99.90;;;;;;5018526;28;20190;-55
2023/12/08 11:15:37;;;;;;;16.92;15.40;;;3.20;99.90;;;;;;5020456;28;20197;-52
2023/12/08 11:18:15;;;;;;;17.98;16.40;;;3.30;1.00;;;;;;5017584;28;20228;-54
2023/12/08 11:20:43;;;;;;;18.75;16.75;;;3.40;99.90;;;;;;5017844;28;20312;-57
2023/12/08 11:23:09;;;;;;;19.45;17.10;;;3.30;99.90;;;;;;5016805;28;20680;-54
2023/12/08 11:25:48;;;;;;;19.10;17.45;;;3.40;99.90;;;;;;5019666;28;20261;-55
2023/12/08 11:28:27;;;;;;;20.13;18.00;;;3.50;99.90;;;;;;5017912;28;20201;-52
2023/12/08 11:30:58;;;;;;;18.77;17.08;;;3.60;99.90;;;;;;5018655;28;20185;-54
2023/12/08 11:33:39;;;;;;;19.38;17.65;;;3.70;99.90;;;;;;5019818;28;20194;-57
2023/12/08 11:36:09;;;;;;;18.88;17.40;;;3.60;99.90;;;;;;5019943;28;20682;-55
2023/12/08 11:38:34;;;;;;;19.35;17.55;;;3.80;99.90;;;;;;5019716;28;20615;-54
2023/12/08 11:41:01;;;;;;;19.03;17.43;;;3.80;99.90;;;;;;5019875;28;20182;-54
2023/12/08 11:43:27;;;;;;;18.38;16.88;;;3.90;18.70;;;;;;5019882;28;20967;-55
2023/12/08 11:45:52;;;;;;;19.70;17.90;;;3.90;1.00;;;;;;5017609;28;20182;-55
2023/12/08 11:48:19;;;;;;;19.07;17.43;;;3.90;1.00;;;;;;5020387;28;20632;-39
2023/12/08 11:50:46;;;;;;;19.33;17.50;;;3.90;1.00;;;;;;5019587;28;20205;-39
2023/12/08 11:53:12;;;;;;;19.73;18.02;;;4.10;1.00;;;;;;5019844;28;20622;-40
2023/12/08 11:55:38;;;;;;;18.40;16.80;;;4.20;1.00;;;;;;5020754;28;20190;-39
2023/12/08 11:58:06;;;;;;;20.10;18.20;;;4.20;1.00;;;;;;5018018;28;20922;-40
2023/12/08 12:00:34;;;;;;;19.23;17.63;;;4.40;1.00;;;;;;5019798;28;20240;-41
2023/12/08 12:03:02;;;;;;;19.05;17.45;;;4.10;99.90;;;;;;5018820;28;20305;-39
2023/12/08 12:05:28;;;;;;;20.58;18.55;;;4.10;1.00;;;;;;5018706;28;20179;-41
2023/12/08 12:07:55;;;;;;;20.43;18.33;;;4.20;99.90;;;;;;5018660;28;20184;-40
2023/12/08 12:10:35;;;;;;;19.98;18.33;;;4.20;99.90;;;;;;5018532;28;20178;-39
2023/12/08 12:13:12;;;;;;;20.75;18.92;;;4.30;1.00;;;;;;5018699;28;20181;-39
2023/12/08 12:15:40;;;;;;;20.33;18.60;;;4.20;1.00;;;;;;5019274;28;20210;-39
2023/12/08 12:18:07;;;;;;;20.63;18.55;;;4.10;1.00;;;;;;5018814;28;20637;-39
2023/12/08 12:20:34;;;;;;;20.55;18.65;;;4.20;1.00;;;;;;5018604;28;20230;-40
2023/12/08 12:23:00;;;;;;;21.10;18.98;;;4.10;1.00;;;;;;5018509;28;20205;-39
2023/12/08 12:25:26;;;;;;;20.00;18.17;;;4.10;1.00;;;;;;5019104;28;20193;-41
2023/12/08 12:27:53;;;;;;;19.50;17.87;;;4.00;1.00;;;;;;5019197;28;20819;-38
2023/12/08 12:30:19;;;;;;;20.48;18.77;;;4.10;1.00;;;;;;5019657;28;20177;-39
2023/12/08 12:32:47;;;;;;;21.42;19.33;;;3.90;15.50;;;;;;5018928;28;20615;-39
2023/12/08 12:35:13;;;;;;;20.67;18.80;;;3.90;1.00;;;;;;5017996;28;20250;-38
2023/12/08 12:37:40;;;;;;;20.63;18.63;;;4.00;1.00;;;;;;5019837;28;20186;-39
2023/12/08 12:40:09;;;;;;;20.30;18.40;;;4.10;1.00;;;;;;5019954;28;20456;-38